Time;durP1;ratioP1;P1;durP2;ratioP2;P2;SDS_P1;SDS_P2;PMS_P1;PMS_P2;Temp;Humidity;BMP_temperature;BMP_pressure;BME280_temperature;BME280_humidity;BME280_pressure;Samples;Min_cycle;Max_cycle;Signal;HPM_P1;HPM_P2
2023/04/14 00:06:13;;;;;;;10.13;3.00;;;3.40;99.90;;;;;;20780441;28;20488;-80
2023/04/14 00:16:14;;;;;;;9.05;3.72;;;3.30;99.90;;;;;;20801908;28;20041;-82
2023/04/14 00:26:15;;;;;;;6.65;3.03;;;3.20;99.90;;;;;;20861610;28;20471;-81
2023/04/14 00:36:17;;;;;;;8.82;3.40;;;3.10;99.90;;;;;;20861210;28;20113;-81
2023/04/14 00:46:18;;;;;;;7.88;4.00;;;2.90;99.90;;;;;;20842469;28;20034;-80
2023/04/14 00:56:20;;;;;;;8.32;3.83;;;2.70;99.90;;;;;;20776041;28;20030;-81
2023/04/14 01:06:20;;;;;;;10.30;3.88;;;2.70;99.90;;;;;;20777761;28;20034;-81
2023/04/14 01:16:31;;;;;;;7.10;3.58;;;2.40;99.90;;;;;;20797630;28;20037;-80
2023/04/14 01:26:32;;;;;;;10.70;3.60;;;2.40;99.90;;;;;;20856031;28;20037;-80
2023/04/14 01:36:46;;;;;;;10.30;4.00;;;2.60;99.90;;;;;;20836730;28;20038;-80
2023/04/14 01:46:51;;;;;;;6.78;3.08;;;2.50;99.90;;;;;;20771946;28;20097;-81
2023/04/14 01:56:54;;;;;;;6.63;3.63;;;2.60;99.90;;;;;;20767205;28;20403;-80
2023/04/14 02:06:58;;;;;;;13.52;4.60;;;2.80;99.90;;;;;;20801791;28;20034;-80
2023/04/14 02:17:01;;;;;;;13.98;6.00;;;2.80;99.90;;;;;;20794705;28;20052;-81
2023/04/14 02:27:09;;;;;;;22.17;7.35;;;3.00;99.90;;;;;;20847391;28;20033;-79
2023/04/14 02:37:18;;;;;;;20.25;7.82;;;3.10;99.90;;;;;;20843724;28;20091;-80
2023/04/14 02:47:27;;;;;;;16.05;6.50;;;3.10;99.90;;;;;;20837793;28;20034;-80
2023/04/14 02:57:32;;;;;;;11.10;5.22;;;3.20;99.90;;;;;;20842087;28;20029;-80
2023/04/14 03:07:34;;;;;;;10.65;4.57;;;3.20;99.90;;;;;;20841338;28;20190;-80
2023/04/14 03:17:36;;;;;;;11.98;5.80;;;3.10;99.90;;;;;;20808159;28;20026;-80
2023/04/14 03:27:39;;;;;;;12.38;5.85;;;3.10;99.90;;;;;;20761958;28;20034;-80
2023/04/14 03:37:41;;;;;;;20.48;8.63;;;3.20;99.90;;;;;;20756833;28;20045;-81
2023/04/14 03:47:43;;;;;;;63.38;9.25;;;3.10;99.90;;;;;;20769314;28;20121;-81
2023/04/14 03:57:46;;;;;;;26.65;8.30;;;2.90;99.90;;;;;;20768483;28;20041;-80
2023/04/14 04:07:49;;;;;;;45.67;7.70;;;2.90;99.90;;;;;;20777048;28;20025;-80
2023/04/14 04:17:51;;;;;;;103.50;11.27;;;2.90;99.90;;;;;;20774777;28;20050;-80
2023/04/14 04:27:53;;;;;;;49.67;8.25;;;3.00;99.90;;;;;;20783381;28;20080;-80
2023/04/14 04:37:55;;;;;;;246.35;15.23;;;2.80;99.90;;;;;;20789284;28;20030;-80
2023/04/14 04:47:56;;;;;;;52.25;9.05;;;2.50;99.90;;;;;;20781137;28;20041;-82
2023/04/14 04:57:57;;;;;;;34.72;8.13;;;2.60;99.90;;;;;;20783935;28;20038;-81
2023/04/14 05:07:58;;;;;;;119.85;9.95;;;2.90;99.90;;;;;;20794632;28;20493;-81
2023/04/14 05:17:58;;;;;;;135.50;9.05;;;2.70;99.90;;;;;;20741116;28;20030;-82
2023/04/14 05:27:59;;;;;;;145.63;14.75;;;2.50;99.90;;;;;;20772513;28;20037;-82
2023/04/14 05:38:00;;;;;;;49.67;7.40;;;2.50;99.90;;;;;;20781894;28;20129;-79
2023/04/14 05:48:01;;;;;;;165.73;12.13;;;2.80;99.90;;;;;;20766679;28;20026;-80
2023/04/14 05:58:02;;;;;;;30.25;11.52;;;2.90;99.90;;;;;;20781819;28;20030;-79
2023/04/14 06:08:03;;;;;;;41.13;11.35;;;3.10;99.90;;;;;;20769930;28;20096;-79
2023/04/14 06:18:03;;;;;;;163.52;18.58;;;3.20;99.90;;;;;;20761673;28;20109;-79
2023/04/14 06:28:04;;;;;;;160.20;16.95;;;3.20;99.90;;;;;;20763075;28;20030;-80
2023/04/14 06:38:05;;;;;;;316.48;20.85;;;3.30;99.90;;;;;;20767577;28;20030;-79
2023/04/14 06:48:06;;;;;;;24.23;10.70;;;3.40;99.90;;;;;;20762404;28;20722;-79
2023/04/14 06:58:07;;;;;;;27.38;10.05;;;3.90;99.90;;;;;;20758710;28;20453;-79
2023/04/14 07:08:08;;;;;;;16.23;7.57;;;4.70;99.90;;;;;;20755314;28;20046;-77
2023/04/14 07:18:08;;;;;;;;;;;6.40;99.90;;;;;;20750934;28;20506;-78
2023/04/14 07:28:10;;;;;;;12.67;4.80;;;7.20;99.90;;;;;;20758265;28;19929;-78
2023/04/14 07:38:11;;;;;;;5.25;3.03;;;7.60;99.90;;;;;;20771054;28;20029;-80
2023/04/14 07:48:12;;;;;;;7.25;3.20;;;7.50;99.90;;;;;;20776001;28;20038;-78
2023/04/14 07:58:14;;;;;;;9.97;3.63;;;8.70;99.90;;;;;;20759907;28;20108;-77
2023/04/14 08:08:14;;;;;;;9.63;1.67;;;8.00;99.90;;;;;;20760553;28;20045;-79
2023/04/14 08:18:16;;;;;;;5.60;1.53;;;8.50;99.90;;;;;;20770892;28;20034;-79
2023/04/14 08:28:17;;;;;;;4.65;0.90;;;8.70;99.90;;;;;;20766210;28;20038;-78
2023/04/14 08:38:19;;;;;;;5.53;1.25;;;9.30;99.90;;;;;;20766174;28;20030;-79
2023/04/14 08:48:21;;;;;;;6.40;1.40;;;9.70;99.90;;;;;;20764408;28;20042;-79
2023/04/14 08:58:22;;;;;;;4.38;1.17;;;9.70;99.90;;;;;;20753607;28;20108;-79
2023/04/14 09:08:22;;;;;;;2.13;0.80;;;9.80;99.90;;;;;;20764216;28;20045;-79
2023/04/14 09:18:24;;;;;;;5.47;1.20;;;10.00;99.90;;;;;;20761933;28;20069;-79
2023/04/14 09:28:26;;;;;;;5.85;1.10;;;10.30;99.90;;;;;;20769867;28;20033;-78
2023/04/14 09:38:38;;;;;;;11.05;1.25;;;10.70;99.90;;;;;;20768891;28;20518;-80
2023/04/14 09:49:09;;;;;;;8.65;0.90;;;10.50;99.90;;;;;;20767674;28;20038;-80
2023/04/14 09:59:10;;;;;;;9.23;0.93;;;10.70;99.90;;;;;;20760448;28;20064;-80
2023/04/14 10:09:21;;;;;;;6.55;1.02;;;11.80;99.90;;;;;;20774873;28;20133;-80
2023/04/14 10:19:22;;;;;;;3.70;1.00;;;12.60;99.90;;;;;;20758275;28;20042;-80
2023/04/14 10:29:23;;;;;;;6.53;1.00;;;13.10;99.90;;;;;;20768973;28;20091;-80
2023/04/14 10:39:25;;;;;;;6.67;1.73;;;13.00;99.90;;;;;;20773880;28;20136;-79
2023/04/14 10:49:37;;;;;;;6.07;1.20;;;14.00;99.90;;;;;;20799092;28;20022;-80
2023/04/14 10:59:42;;;;;;;5.78;1.00;;;14.40;99.90;;;;;;20795925;28;20036;-80
2023/04/14 11:09:42;;;;;;;3.67;0.90;;;14.00;99.90;;;;;;20816647;28;20108;-78
2023/04/14 11:19:44;;;;;;;1.60;0.53;;;14.30;99.90;;;;;;20822411;28;20048;-77
2023/04/14 11:29:47;;;;;;;4.10;0.75;;;15.70;99.90;;;;;;20803092;28;20033;-77
2023/04/14 11:39:50;;;;;;;5.20;0.63;;;15.40;99.70;;;;;;20770129;28;20117;-78
2023/04/14 11:49:51;;;;;;;5.85;0.98;;;15.20;99.90;;;;;;20773926;28;20030;-78
2023/04/14 11:59:55;;;;;;;2.60;0.80;;;15.70;99.60;;;;;;20781000;28;20080;-77
2023/04/14 12:09:56;;;;;;;0.88;0.45;;;14.20;98.40;;;;;;20775695;28;20038;-79
2023/04/14 12:19:57;;;;;;;5.43;0.90;;;15.70;99.90;;;;;;20771059;28;20049;-79
2023/04/14 12:29:58;;;;;;;4.47;1.03;;;17.70;98.50;;;;;;20772041;28;20505;-79
2023/04/14 12:40:00;;;;;;;3.03;0.60;;;16.20;97.80;;;;;;20788004;28;20029;-78
2023/04/14 12:50:20;;;;;;;3.10;0.52;;;15.30;95.80;;;;;;20801535;28;20034;-79
2023/04/14 13:00:22;;;;;;;4.20;0.70;;;13.90;93.90;;;;;;20751705;28;20057;-78
2023/04/14 13:10:23;;;;;;;0.95;0.38;;;13.50;93.30;;;;;;20803739;28;20461;-78
2023/04/14 13:20:24;;;;;;;8.00;3.00;;;14.60;92.70;;;;;;20790673;28;20026;-78
2023/04/14 13:30:25;;;;;;;5.00;0.70;;;15.30;94.10;;;;;;20780766;28;20037;-79
2023/04/14 13:40:25;;;;;;;3.47;0.70;;;17.30;91.60;;;;;;20780054;28;20101;-79
2023/04/14 13:50:27;;;;;;;5.43;1.10;;;16.70;90.70;;;;;;20788468;28;20056;-77
2023/04/14 14:00:27;;;;;;;2.63;1.20;;;15.00;92.20;;;;;;20777345;28;20033;-81
2023/04/14 14:10:28;;;;;;;2.00;0.60;;;14.80;92.40;;;;;;20770346;28;20029;-81
2023/04/14 14:20:29;;;;;;;2.53;0.60;;;14.50;92.40;;;;;;20768847;28;20076;-81
2023/04/14 14:30:30;;;;;;;3.90;0.70;;;14.60;92.40;;;;;;20773138;28;20025;-76
2023/04/14 14:40:30;;;;;;;3.20;0.60;;;16.30;91.90;;;;;;20781629;28;20026;-77
2023/04/14 14:50:31;;;;;;;5.57;1.63;;;15.80;90.60;;;;;;20778270;28;20117;-78
2023/04/14 15:00:32;;;;;;;7.73;2.00;;;15.90;90.40;;;;;;20769924;28;20279;-76
2023/04/14 15:10:33;;;;;;;8.10;2.37;;;14.10;91.20;;;;;;20760588;28;20034;-77
2023/04/14 15:20:34;;;;;;;9.00;3.23;;;15.20;92.90;;;;;;20762577;28;20057;-77
2023/04/14 15:30:35;;;;;;;25.87;6.30;;;14.10;93.50;;;;;;20767367;28;20280;-77
2023/04/14 15:40:37;;;;;;;6.90;1.43;;;14.20;93.10;;;;;;20776031;28;20040;-78
2023/04/14 15:50:38;;;;;;;2.42;0.52;;;14.30;92.30;;;;;;20759061;28;20040;-76
2023/04/14 16:00:39;;;;;;;3.57;0.60;;;13.30;93.10;;;;;;20755138;28;20121;-75
2023/04/14 16:10:40;;;;;;;5.60;0.70;;;13.20;92.10;;;;;;20752952;28;20025;-75
2023/04/14 16:20:41;;;;;;;3.83;0.63;;;13.30;93.20;;;;;;20759251;28;20030;-78
2023/04/14 16:30:42;;;;;;;3.87;1.27;;;13.40;92.90;;;;;;20758429;28;20045;-77
2023/04/14 16:40:43;;;;;;;2.97;0.73;;;13.60;91.50;;;;;;20757434;28;20037;-78
2023/04/14 16:50:46;;;;;;;2.50;0.50;;;13.60;91.70;;;;;;20753355;28;20037;-78
2023/04/14 17:00:46;;;;;;;3.88;0.93;;;13.60;91.50;;;;;;20759631;28;20038;-79
2023/04/14 17:10:47;;;;;;;11.07;4.37;;;12.90;93.50;;;;;;20757148;28;20088;-77
2023/04/14 17:20:48;;;;;;;8.50;1.00;;;12.80;93.50;;;;;;20751671;28;20088;-79
2023/04/14 17:30:49;;;;;;;1.23;0.53;;;12.40;92.90;;;;;;20756313;28;20034;-79
2023/04/14 17:40:52;;;;;;;;;;;12.10;93.40;;;;;;20755778;28;20048;-78
2023/04/14 17:50:53;;;;;;;4.63;0.77;;;11.90;93.90;;;;;;20755377;28;19914;-79
2023/04/14 18:00:54;;;;;;;;;;;11.50;95.60;;;;;;20754198;28;20405;-77
2023/04/14 18:10:57;;;;;;;2.28;0.70;;;10.70;99.90;;;;;;20749674;28;20013;-79
2023/04/14 18:20:58;;;;;;;2.00;0.85;;;10.30;99.90;;;;;;20759197;28;20065;-79
2023/04/14 18:30:59;;;;;;;0.63;0.57;;;8.90;99.90;;;;;;20753102;28;20466;-77
2023/04/14 18:41:04;;;;;;;4.30;0.77;;;7.70;99.90;;;;;;20743184;28;20044;-78
2023/04/14 18:51:08;;;;;;;7.32;2.35;;;8.10;99.90;;;;;;20744842;28;20285;-78
2023/04/14 19:01:08;;;;;;;3.20;1.10;;;7.90;99.90;;;;;;20734439;28;20037;-79
2023/04/14 19:11:09;;;;;;;5.97;1.00;;;7.20;99.90;;;;;;20747885;28;20750;-78
2023/04/14 19:21:11;;;;;;;2.53;1.15;;;6.80;99.90;;;;;;20760475;28;20084;-80
2023/04/14 19:31:11;;;;;;;;;;;7.30;99.90;;;;;;20772239;28;20022;-78
2023/04/14 19:41:13;;;;;;;2.77;1.17;;;7.10;99.90;;;;;;20768902;28;20075;-79
2023/04/14 19:51:14;;;;;;;4.20;1.50;;;6.80;99.90;;;;;;20774419;28;20675;-77
2023/04/14 20:01:15;;;;;;;6.93;1.60;;;6.70;99.90;;;;;;20760048;28;20073;-78
2023/04/14 20:11:16;;;;;;;2.97;1.57;;;6.00;99.90;;;;;;20766308;28;20025;-78
2023/04/14 20:21:17;;;;;;;;;;;6.20;99.90;;;;;;20773175;28;20033;-78
2023/04/14 20:31:18;;;;;;;4.40;1.50;;;6.10;99.90;;;;;;20799021;28;19917;-78
2023/04/14 20:41:19;;;;;;;2.90;1.02;;;5.10;99.90;;;;;;20820386;28;20054;-79
2023/04/14 20:51:20;;;;;;;5.53;1.20;;;5.00;99.90;;;;;;20774461;28;20583;-77
2023/04/14 21:01:22;;;;;;;;;;;4.90;99.90;;;;;;20755849;28;20053;-78
2023/04/14 21:11:23;;;;;;;8.35;1.50;;;4.90;99.90;;;;;;20757014;28;19913;-77
2023/04/14 21:21:24;;;;;;;;;;;4.40;99.90;;;;;;20753622;28;20033;-78
2023/04/14 21:31:26;;;;;;;4.28;1.42;;;4.60;99.90;;;;;;20757054;28;19963;-78
2023/04/14 21:41:26;;;;;;;2.47;1.30;;;4.30;99.90;;;;;;20749588;28;20042;-77
2023/04/14 21:51:27;;;;;;;;;;;4.30;99.90;;;;;;20742628;28;20091;-78
2023/04/14 22:01:28;;;;;;;2.95;1.15;;;4.10;99.90;;;;;;20759188;28;19924;-78
2023/04/14 22:11:29;;;;;;;2.13;1.20;;;3.90;99.90;;;;;;20771243;28;20061;-78
2023/04/14 22:21:30;;;;;;;3.33;1.42;;;3.80;99.90;;;;;;20759068;28;20065;-78
2023/04/14 22:31:31;;;;;;;4.40;1.55;;;3.60;99.90;;;;;;20762998;28;20029;-78
2023/04/14 22:41:32;;;;;;;4.70;1.70;;;3.60;99.90;;;;;;20760120;28;20488;-78
2023/04/14 22:51:33;;;;;;;4.40;1.77;;;3.50;99.90;;;;;;20757934;28;20045;-77
2023/04/14 23:01:33;;;;;;;5.72;1.30;;;3.40;99.90;;;;;;20782612;28;20031;-79
2023/04/14 23:11:34;;;;;;;1.98;1.20;;;3.30;99.90;;;;;;20813666;28;20097;-78
2023/04/14 23:21:35;;;;;;;6.97;1.50;;;3.40;99.90;;;;;;20812815;28;20026;-79
2023/04/14 23:31:36;;;;;;;2.75;1.10;;;3.30;99.90;;;;;;20832180;28;20089;-78
2023/04/14 23:41:36;;;;;;;3.45;1.50;;;3.40;99.90;;;;;;20900088;28;20029;-78
2023/04/14 23:51:37;;;;;;;2.40;1.25;;;3.10;99.90;;;;;;20896159;28;20033;-77
